createdAt,value
2022-09-20T00:01:33.457Z,0.88
2022-09-20T00:06:35.143Z,1.20
2022-09-20T00:11:37.229Z,1.17
2022-09-20T00:16:40.863Z,1.02
2022-09-20T00:21:42.446Z,1.10
2022-09-20T00:26:43.941Z,1.10
2022-09-20T00:31:45.645Z,1.02
2022-09-20T00:36:47.268Z,1.25
2022-09-20T00:41:48.832Z,0.90
2022-09-20T00:46:50.610Z,1.10
2022-09-20T00:51:56.942Z,1.10
2022-09-20T00:56:58.523Z,0.90
2022-09-20T01:02:22.952Z,1.20
2022-09-20T01:07:25.555Z,0.70
2022-09-20T01:12:30.997Z,0.80
2022-09-20T01:17:36.369Z,0.85
2022-09-20T01:22:58.063Z,1.02
2022-09-20T01:27:59.892Z,1.00
2022-09-20T01:33:31.001Z,0.82
2022-09-20T01:38:42.618Z,1.15
2022-09-20T01:43:51.926Z,1.30
2022-09-20T01:49:04.761Z,0.70
2022-09-20T01:54:12.635Z,1.40
2022-09-20T01:59:27.279Z,1.42
2022-09-20T02:04:44.375Z,1.48
2022-09-20T02:10:05.853Z,1.52
2022-09-20T02:15:45.226Z,1.15
2022-09-20T02:20:56.907Z,1.13
2022-09-20T02:26:36.183Z,1.13
2022-09-20T02:31:49.699Z,0.95
2022-09-20T02:37:00.695Z,1.38
2022-09-20T02:42:18.004Z,1.13
2022-09-20T02:47:35.805Z,1.20
2022-09-20T02:52:46.530Z,1.35
2022-09-20T02:58:06.979Z,1.08
2022-09-20T03:03:24.352Z,1.20
2022-09-20T03:08:31.993Z,1.30
2022-09-20T03:14:05.378Z,1.30
2022-09-20T03:19:28.464Z,1.17
2022-09-20T03:24:51.871Z,1.77
2022-09-20T03:30:24.191Z,0.93
2022-09-20T03:35:44.123Z,1.38
2022-09-20T03:40:55.646Z,1.30
2022-09-20T03:46:04.203Z,1.30
2022-09-20T03:56:42.933Z,1.50
2022-09-20T04:02:09.872Z,1.42
2022-09-20T04:07:30.061Z,1.35
2022-09-20T04:12:56.796Z,1.45
2022-09-20T04:18:12.615Z,1.20
2022-09-20T04:23:25.566Z,1.40
2022-09-20T04:28:36.102Z,1.55
2022-09-20T04:33:45.290Z,1.50
2022-09-20T04:38:54.441Z,1.73
2022-09-20T04:44:27.905Z,1.90
2022-09-20T04:50:00.248Z,2.05
2022-09-20T04:55:48.328Z,2.55
2022-09-20T05:01:17.650Z,2.30
2022-09-20T05:06:56.901Z,2.00
2022-09-20T05:12:04.413Z,2.83
2022-09-20T05:17:38.154Z,2.43
2022-09-20T05:23:02.633Z,2.97
2022-09-20T05:28:10.290Z,3.20
2022-09-20T05:33:35.222Z,3.47
2022-09-20T05:38:58.029Z,3.40
2022-09-20T05:44:09.027Z,3.33
2022-09-20T05:49:38.737Z,3.72
2022-09-20T05:54:58.206Z,3.47
2022-09-20T06:00:19.698Z,2.95
2022-09-20T06:05:33.779Z,3.72
2022-09-20T06:10:47.402Z,3.50
2022-09-20T06:16:01.428Z,2.92
2022-09-20T06:21:41.835Z,2.88
2022-09-20T06:26:45.107Z,2.95
2022-09-20T06:31:46.602Z,2.90
2022-09-20T06:37:13.290Z,2.35
2022-09-20T06:42:14.835Z,2.50
2022-09-20T06:47:16.374Z,2.55
2022-09-20T06:52:20.238Z,2.55
2022-09-20T06:57:37.796Z,2.55
2022-09-20T07:02:39.569Z,3.03
2022-09-20T07:07:41.387Z,2.60
2022-09-20T07:12:43.101Z,2.30
2022-09-20T07:17:45.479Z,1.88
2022-09-20T07:22:47.842Z,2.17
2022-09-20T07:27:51.047Z,2.10
2022-09-20T07:32:52.561Z,1.92
2022-09-20T07:37:58.323Z,2.60
2022-09-20T07:42:59.818Z,2.83
2022-09-20T07:48:05.203Z,2.60
2022-09-20T07:53:06.713Z,3.15
2022-09-20T07:58:08.208Z,3.25
2022-09-20T08:03:09.919Z,3.42
2022-09-20T08:08:11.942Z,2.75
2022-09-20T08:18:36.488Z,2.17
2022-09-20T08:23:40.391Z,2.55
2022-09-20T08:28:42.360Z,1.83
2022-09-20T08:33:44.055Z,2.13
2022-09-20T08:44:26.349Z,1.77
2022-09-20T08:49:29.667Z,1.45
2022-09-20T08:54:33.310Z,1.27
2022-09-20T08:59:35.055Z,1.50
2022-09-20T09:04:36.782Z,1.67
2022-09-20T09:09:41.374Z,1.70
2022-09-20T09:14:48.706Z,1.63
2022-09-20T09:19:58.568Z,1.63
2022-09-20T09:25:09.429Z,1.10
2022-09-20T09:30:40.837Z,1.20
2022-09-20T09:35:42.984Z,1.17
2022-09-20T09:40:53.640Z,1.42
2022-09-20T09:46:17.123Z,1.30
2022-09-20T09:51:20.607Z,1.20
2022-09-20T09:56:34.235Z,0.90
2022-09-20T10:01:41.033Z,1.27
2022-09-20T10:07:02.754Z,1.20
2022-09-20T10:12:39.726Z,1.13
2022-09-20T10:18:08.774Z,1.33
2022-09-20T10:23:58.682Z,1.63
2022-09-20T10:29:08.382Z,1.27
2022-09-20T10:34:48.548Z,1.20
2022-09-20T10:40:06.495Z,1.30
2022-09-20T10:45:36.298Z,1.20
2022-09-20T10:51:01.385Z,1.52
2022-09-20T10:56:33.491Z,1.23
2022-09-20T11:01:51.651Z,1.45
2022-09-20T11:07:28.807Z,1.40
2022-09-20T11:12:42.460Z,1.20
2022-09-20T11:17:56.850Z,0.85
2022-09-20T11:23:05.056Z,1.30
2022-09-20T11:28:14.040Z,0.38
2022-09-20T11:33:28.685Z,0.50
2022-09-20T11:38:41.354Z,0.50
2022-09-20T11:43:45.316Z,0.30
2022-09-20T11:49:00.745Z,0.63
2022-09-20T11:54:23.983Z,0.70
2022-09-20T11:59:40.328Z,0.68
2022-09-20T12:04:45.489Z,0.70
2022-09-20T12:09:53.466Z,1.00
2022-09-20T12:14:57.294Z,1.25
2022-09-20T12:19:58.867Z,1.25
2022-09-20T12:25:36.735Z,1.33
2022-09-20T12:30:38.348Z,1.10
2022-09-20T12:35:39.862Z,0.93
2022-09-20T12:41:03.478Z,0.70
2022-09-20T12:46:11.315Z,0.60
2022-09-20T12:51:43.306Z,0.60
2022-09-20T12:56:46.657Z,0.73
2022-09-20T13:01:48.459Z,0.77
2022-09-20T13:07:10.863Z,0.70
2022-09-20T13:12:12.675Z,0.68
2022-09-20T13:17:26.773Z,0.70
2022-09-20T13:22:43.625Z,0.43
2022-09-20T13:28:07.218Z,0.77
2022-09-20T13:33:36.508Z,0.60
2022-09-20T13:38:38.323Z,0.50
2022-09-20T13:43:43.474Z,0.43
2022-09-20T13:48:52.800Z,0.38
2022-09-20T13:54:25.656Z,0.52
2022-09-20T13:59:34.041Z,0.40
2022-09-20T14:04:38.515Z,0.70
2022-09-20T14:09:40.390Z,0.50
2022-09-20T14:14:42.124Z,0.55
2022-09-20T14:19:46.402Z,0.68
2022-09-20T14:25:04.119Z,0.50
2022-09-20T14:30:07.385Z,0.30
2022-09-20T14:35:18.716Z,0.45
2022-09-20T14:40:45.519Z,0.28
2022-09-20T14:45:54.206Z,0.50
2022-09-20T14:51:16.338Z,0.45
2022-09-20T14:56:34.425Z,0.60
2022-09-20T15:01:38.211Z,0.60
2022-09-20T15:06:40.022Z,0.50
2022-09-20T15:11:41.542Z,0.70
2022-09-20T15:16:43.098Z,0.43
2022-09-20T15:21:44.837Z,0.40
2022-09-20T15:26:46.447Z,0.77
2022-09-20T15:31:48.556Z,0.70
2022-09-20T15:36:50.726Z,0.60
2022-09-20T15:41:53.307Z,0.55
2022-09-20T15:46:55.041Z,0.70
2022-09-20T15:51:57.185Z,0.45
2022-09-20T15:56:58.670Z,0.65
2022-09-20T16:02:00.631Z,0.47
2022-09-20T16:07:02.738Z,0.70
2022-09-20T16:12:04.673Z,0.60
2022-09-20T16:17:06.142Z,0.70
2022-09-20T16:22:08.210Z,0.52
2022-09-20T16:27:09.930Z,0.57
2022-09-20T16:32:11.458Z,0.55
2022-09-20T16:37:17.024Z,0.50
2022-09-20T16:42:18.666Z,0.30
2022-09-20T16:47:23.098Z,0.52
2022-09-20T16:52:26.551Z,0.60
2022-09-20T16:57:28.822Z,0.47
2022-09-20T17:02:30.391Z,0.65
2022-09-20T17:07:32.562Z,0.50
2022-09-20T17:12:41.627Z,0.30
2022-09-20T17:17:43.160Z,0.40
2022-09-20T17:22:44.615Z,0.40
2022-09-20T17:27:48.225Z,0.45
2022-09-20T17:32:50.738Z,0.30
2022-09-20T17:37:52.215Z,0.20
2022-09-20T17:42:55.130Z,0.50
2022-09-20T17:47:57.512Z,0.40
2022-09-20T17:52:59.115Z,0.25
2022-09-20T17:58:01.119Z,0.30
2022-09-20T18:03:04.981Z,0.45
2022-09-20T18:08:06.927Z,0.60
2022-09-20T18:13:08.440Z,0.30
2022-09-20T18:18:10.045Z,0.50
2022-09-20T18:23:11.728Z,0.50
2022-09-20T18:28:14.079Z,0.30
2022-09-20T18:33:18.643Z,0.30
2022-09-20T18:38:21.640Z,0.80
2022-09-20T18:43:23.251Z,0.50
2022-09-20T18:48:26.816Z,0.60
2022-09-20T18:53:30.195Z,0.60
2022-09-20T18:58:31.830Z,0.65
2022-09-20T19:03:47.239Z,0.45
2022-09-20T19:09:02.063Z,0.85
2022-09-20T19:14:12.107Z,0.68
2022-09-20T19:19:37.018Z,0.50
2022-09-20T19:24:58.154Z,0.60
2022-09-20T19:29:59.980Z,0.75
2022-09-20T19:35:01.853Z,0.60
2022-09-20T19:40:20.997Z,0.70
2022-09-20T19:45:31.247Z,0.45
2022-09-20T19:50:45.285Z,0.73
2022-09-20T19:55:52.010Z,0.80
2022-09-20T20:00:53.898Z,0.90
2022-09-20T20:06:16.246Z,0.60
2022-09-20T20:11:28.292Z,0.63
2022-09-20T20:16:51.668Z,1.13
2022-09-20T20:22:08.201Z,0.80
2022-09-20T20:27:09.810Z,0.90
2022-09-20T20:32:12.036Z,0.90
2022-09-20T20:37:14.126Z,1.00
2022-09-20T20:42:15.919Z,1.90
2022-09-20T20:47:17.414Z,2.78
2022-09-20T20:52:19.283Z,3.13
2022-09-20T20:57:20.749Z,2.90
2022-09-20T21:02:22.275Z,2.10
2022-09-20T21:07:24.792Z,2.00
2022-09-20T21:12:26.639Z,1.20
2022-09-20T21:17:31.508Z,4.00
2022-09-20T21:22:35.569Z,1.40
2022-09-20T21:27:37.101Z,0.70
2022-09-20T21:32:38.755Z,0.77
2022-09-20T21:37:41.200Z,12.73
2022-09-20T21:42:42.653Z,16.23
2022-09-20T21:47:48.913Z,14.32
2022-09-20T21:52:50.577Z,5.30
2022-09-20T21:57:52.029Z,1.48
2022-09-20T22:02:58.865Z,13.35
2022-09-20T22:08:00.455Z,15.93
2022-09-20T22:13:01.918Z,8.52
2022-09-20T22:18:05.881Z,3.90
2022-09-20T22:23:07.345Z,0.90
2022-09-20T22:28:08.801Z,0.85
2022-09-20T22:33:10.247Z,0.90
2022-09-20T22:38:11.719Z,0.75
2022-09-20T22:43:13.175Z,0.90
2022-09-20T22:48:14.723Z,1.02
2022-09-20T22:53:16.170Z,0.80
2022-09-20T22:58:17.616Z,3.80
2022-09-20T23:03:19.120Z,1.20
2022-09-20T23:08:22.395Z,2.13
2022-09-20T23:13:24.089Z,1.40
2022-09-20T23:18:25.909Z,1.30
2022-09-20T23:23:29.119Z,0.95
2022-09-20T23:28:30.647Z,1.60
2022-09-20T23:33:32.266Z,1.40
2022-09-20T23:38:33.766Z,0.77
2022-09-20T23:43:36.280Z,0.70
2022-09-20T23:48:41.687Z,0.60
2022-09-20T23:53:43.518Z,0.90
2022-09-20T23:58:45.927Z,0.60
